createdAt,value
2023-01-05T00:00:02.264Z,2.00
2023-01-05T00:02:28.649Z,1.67
2023-01-05T00:04:55.170Z,2.00
2023-01-05T00:07:21.515Z,2.00
2023-01-05T00:09:47.868Z,2.00
2023-01-05T00:12:14.439Z,3.00
2023-01-05T00:14:40.801Z,2.00
2023-01-05T00:17:07.172Z,2.00
2023-01-05T00:19:33.635Z,1.33
2023-01-05T00:22:00.048Z,3.00
2023-01-05T00:24:26.420Z,3.00
2023-01-05T00:26:55.563Z,2.00
2023-01-05T00:29:21.941Z,5.33
2023-01-05T00:31:49.295Z,7.25
2023-01-05T00:34:15.767Z,6.00
2023-01-05T00:36:42.158Z,4.33
2023-01-05T00:39:08.767Z,3.33
2023-01-05T00:41:35.137Z,4.33
2023-01-05T00:44:01.521Z,4.00
2023-01-05T00:46:27.952Z,4.00
2023-01-05T00:48:54.414Z,2.67
2023-01-05T00:51:20.775Z,3.00
2023-01-05T00:53:47.156Z,5.00
2023-01-05T00:56:13.582Z,3.00
2023-01-05T00:58:39.920Z,1.00
2023-01-05T01:01:06.358Z,3.00
2023-01-05T01:03:32.860Z,2.67
2023-01-05T01:05:59.254Z,1.67
2023-01-05T01:08:25.624Z,2.00
2023-01-05T01:10:51.985Z,2.00
2023-01-05T01:13:18.432Z,2.00
2023-01-05T01:15:44.799Z,3.00
2023-01-05T01:18:11.191Z,2.00
2023-01-05T01:20:37.562Z,1.00
2023-01-05T01:23:03.931Z,2.00
2023-01-05T01:25:30.295Z,2.00
2023-01-05T01:27:56.659Z,3.00
2023-01-05T01:30:23.238Z,2.00
2023-01-05T01:32:49.670Z,2.00
2023-01-05T01:35:16.040Z,1.33
2023-01-05T01:37:42.397Z,2.00
2023-01-05T01:40:08.753Z,1.00
2023-01-05T01:42:35.130Z,1.33
2023-01-05T01:45:01.505Z,1.67
2023-01-05T01:47:27.942Z,1.00
2023-01-05T01:49:54.345Z,2.00
2023-01-05T01:52:20.716Z,1.33
2023-01-05T01:54:47.093Z,2.00
2023-01-05T01:57:13.450Z,2.00
2023-01-05T01:59:42.600Z,1.00
2023-01-05T02:02:09.044Z,2.67
2023-01-05T02:04:38.530Z,1.50
2023-01-05T02:07:04.923Z,1.00
2023-01-05T02:09:34.047Z,1.00
2023-01-05T02:12:00.463Z,1.00
2023-01-05T02:14:29.580Z,1.00
2023-01-05T02:16:55.933Z,1.33
2023-01-05T02:19:22.293Z,1.67
2023-01-05T02:21:51.431Z,1.00
2023-01-05T02:24:17.986Z,2.00
2023-01-05T02:26:47.128Z,0.00
2023-01-05T02:29:13.478Z,1.00
2023-01-05T02:31:42.622Z,1.00
2023-01-05T02:34:08.980Z,1.00
2023-01-05T02:36:35.339Z,1.00
2023-01-05T02:39:04.488Z,1.00
2023-01-05T02:41:33.664Z,1.00
2023-01-05T02:44:02.810Z,1.00
2023-01-05T02:46:29.274Z,1.00
2023-01-05T02:48:55.641Z,1.00
2023-01-05T02:51:21.975Z,1.00
2023-01-05T02:53:51.119Z,1.00
2023-01-05T02:56:17.448Z,1.00
2023-01-05T02:58:43.783Z,0.33
2023-01-05T03:01:13.014Z,0.17
2023-01-05T03:03:42.299Z,0.83
2023-01-05T03:06:08.679Z,0.67
2023-01-05T03:08:37.809Z,1.00
2023-01-05T03:11:06.957Z,1.00
2023-01-05T03:13:36.093Z,0.83
2023-01-05T03:16:05.273Z,0.83
2023-01-05T03:18:31.626Z,0.00
2023-01-05T03:21:00.785Z,0.00
2023-01-05T03:23:29.932Z,0.00
2023-01-05T03:25:56.280Z,1.00
2023-01-05T03:28:25.417Z,1.00
2023-01-05T03:30:54.653Z,0.67
2023-01-05T03:33:23.821Z,1.00
2023-01-05T03:35:50.171Z,1.00
2023-01-05T03:38:19.318Z,0.50
2023-01-05T03:40:48.460Z,0.00
2023-01-05T03:43:14.827Z,1.00
2023-01-05T03:45:43.975Z,1.00
2023-01-05T03:48:10.326Z,0.00
2023-01-05T03:50:39.459Z,0.17
2023-01-05T03:53:05.799Z,0.00
2023-01-05T03:55:34.936Z,1.00
2023-01-05T03:58:01.350Z,1.00
2023-01-05T04:00:30.504Z,1.00
2023-01-05T04:02:59.714Z,0.17
2023-01-05T04:05:28.931Z,0.67
2023-01-05T04:07:55.237Z,1.00
2023-01-05T04:10:21.567Z,0.00
2023-01-05T04:12:50.701Z,0.00
2023-01-05T04:15:17.086Z,0.33
2023-01-05T04:17:43.424Z,0.00
2023-01-05T04:20:09.824Z,0.00
2023-01-05T04:22:38.946Z,0.00
2023-01-05T04:25:05.274Z,0.00
2023-01-05T04:27:34.408Z,0.00
2023-01-05T04:30:03.565Z,0.67
2023-01-05T04:32:29.921Z,0.33
2023-01-05T04:34:59.077Z,0.00
2023-01-05T04:37:28.782Z,0.00
2023-01-05T04:39:57.909Z,0.00
2023-01-05T04:42:24.295Z,0.00
2023-01-05T04:44:53.441Z,0.00
2023-01-05T04:47:19.773Z,0.00
2023-01-05T04:49:48.912Z,1.00
2023-01-05T04:52:15.269Z,0.00
2023-01-05T04:54:44.469Z,0.00
2023-01-05T04:57:13.811Z,0.00
2023-01-05T04:59:42.960Z,0.00
2023-01-05T05:02:09.439Z,1.00
2023-01-05T05:04:35.827Z,0.00
2023-01-05T05:07:04.977Z,0.00
2023-01-05T05:09:31.318Z,0.33
2023-01-05T05:11:57.774Z,0.00
2023-01-05T05:14:24.112Z,0.00
2023-01-05T05:16:53.242Z,0.83
2023-01-05T05:19:19.590Z,0.00
2023-01-05T05:21:45.909Z,0.00
2023-01-05T05:24:12.301Z,1.00
2023-01-05T05:26:38.755Z,0.33
2023-01-05T05:29:05.204Z,0.00
2023-01-05T05:31:31.599Z,0.00
2023-01-05T05:34:00.778Z,0.00
2023-01-05T05:36:29.926Z,0.00
2023-01-05T05:38:56.244Z,0.00
2023-01-05T05:41:22.573Z,0.33
2023-01-05T05:43:48.907Z,0.00
2023-01-05T05:46:15.376Z,0.00
2023-01-05T05:48:44.526Z,0.00
2023-01-05T05:51:13.679Z,0.00
2023-01-05T05:53:40.070Z,0.00
2023-01-05T05:56:06.422Z,0.00
2023-01-05T05:58:32.780Z,0.33
2023-01-05T06:01:01.996Z,0.00
2023-01-05T06:03:31.229Z,0.00
2023-01-05T06:06:00.498Z,0.00
2023-01-05T06:08:29.625Z,0.00
2023-01-05T06:10:58.754Z,0.00
2023-01-05T06:13:25.257Z,0.00
2023-01-05T06:15:51.626Z,0.00
2023-01-05T06:18:18.022Z,0.00
2023-01-05T06:20:44.360Z,0.00
2023-01-05T06:23:10.691Z,0.00
2023-01-05T06:25:37.022Z,0.00
2023-01-05T06:28:06.155Z,0.00
2023-01-05T06:30:32.480Z,0.00
2023-01-05T06:32:58.815Z,0.00
2023-01-05T06:35:25.252Z,0.00
2023-01-05T06:37:54.386Z,0.00
2023-01-05T06:40:23.539Z,0.00
2023-01-05T06:42:52.729Z,0.00
2023-01-05T06:45:19.081Z,0.00
2023-01-05T06:47:45.426Z,0.00
2023-01-05T06:50:11.758Z,0.00
2023-01-05T06:52:38.167Z,0.00
2023-01-05T06:55:07.298Z,0.00
2023-01-05T06:57:36.440Z,0.00
2023-01-05T07:00:05.695Z,0.00
2023-01-05T07:02:32.044Z,0.00
2023-01-05T07:05:01.167Z,0.00
2023-01-05T07:07:30.321Z,0.17
2023-01-05T07:09:56.709Z,0.00
2023-01-05T07:12:23.219Z,0.00
2023-01-05T07:14:57.295Z,0.00
2023-01-05T07:17:27.126Z,0.67
2023-01-05T07:19:56.265Z,0.67
2023-01-05T07:22:22.598Z,0.00
2023-01-05T07:24:51.744Z,0.00
2023-01-05T07:27:18.094Z,1.00
2023-01-05T07:29:47.280Z,1.00
2023-01-05T07:32:16.425Z,0.83
2023-01-05T07:34:54.873Z,0.67
2023-01-05T07:37:24.999Z,0.83
2023-01-05T07:39:51.691Z,2.33
2023-01-05T07:42:18.143Z,2.00
2023-01-05T07:44:44.487Z,2.00
2023-01-05T07:47:10.869Z,2.00
2023-01-05T07:49:37.429Z,8.00
2023-01-05T07:52:03.898Z,7.67
2023-01-05T07:54:30.539Z,5.00
2023-01-05T07:56:57.247Z,4.00
2023-01-05T07:59:23.803Z,4.00
2023-01-05T08:01:50.628Z,5.33
2023-01-05T08:04:17.186Z,4.00
2023-01-05T08:06:43.626Z,3.00
2023-01-05T08:09:10.034Z,3.67
2023-01-05T08:11:36.414Z,6.33
2023-01-05T08:14:03.108Z,5.00
2023-01-05T08:16:29.695Z,25.50
2023-01-05T08:18:57.228Z,24.00
2023-01-05T08:21:23.703Z,19.50
2023-01-05T08:23:50.108Z,13.00
2023-01-05T08:26:16.645Z,13.00
2023-01-05T08:28:43.090Z,9.00
2023-01-05T08:31:09.529Z,8.33
2023-01-05T08:33:36.816Z,9.50
2023-01-05T08:36:03.168Z,7.67
2023-01-05T08:38:29.644Z,5.00
2023-01-05T08:40:56.105Z,7.33
2023-01-05T08:43:22.479Z,5.00
2023-01-05T08:45:48.878Z,5.33
2023-01-05T08:48:15.449Z,5.33
2023-01-05T08:50:41.821Z,4.33
2023-01-05T08:53:08.223Z,4.33
2023-01-05T08:55:34.621Z,5.33
2023-01-05T08:58:00.998Z,5.00
2023-01-05T09:00:27.407Z,0.67
2023-01-05T09:02:53.936Z,4.00
2023-01-05T09:05:20.386Z,5.00
2023-01-05T09:07:46.801Z,5.00
2023-01-05T09:10:14.045Z,3.75
2023-01-05T09:12:40.489Z,3.33
2023-01-05T09:15:06.878Z,4.67
2023-01-05T09:17:33.361Z,3.33
2023-01-05T09:19:59.771Z,4.00
2023-01-05T09:22:26.133Z,3.00
2023-01-05T09:24:52.567Z,3.00
2023-01-05T09:27:18.937Z,2.33
2023-01-05T09:29:45.307Z,3.00
2023-01-05T09:32:11.703Z,1.33
2023-01-05T09:34:38.075Z,2.00
2023-01-05T09:37:07.304Z,1.00
2023-01-05T09:39:33.699Z,2.67
2023-01-05T09:42:00.107Z,2.33
2023-01-05T09:44:26.622Z,14.00
2023-01-05T09:46:53.064Z,10.50
2023-01-05T09:49:19.489Z,8.33
2023-01-05T09:51:45.859Z,5.33
2023-01-05T09:54:13.159Z,6.75
2023-01-05T09:57:08.677Z,3.67
2023-01-05T09:59:25.892Z,4.33
2023-01-05T10:01:52.287Z,2.00
2023-01-05T10:04:22.787Z,3.00
2023-01-05T10:06:51.639Z,2.00
2023-01-05T10:09:18.888Z,3.00
2023-01-05T10:11:45.285Z,5.00
2023-01-05T10:14:11.668Z,4.00
2023-01-05T10:16:38.115Z,4.00
2023-01-05T10:19:04.529Z,3.33
2023-01-05T10:21:30.919Z,3.67
2023-01-05T10:23:58.513Z,3.00
2023-01-05T10:26:24.929Z,4.00
2023-01-05T10:28:51.322Z,4.00
2023-01-05T10:31:18.578Z,3.75
2023-01-05T10:33:52.592Z,13.00
2023-01-05T10:36:48.789Z,20.67
2023-01-05T10:39:08.603Z,22.00
2023-01-05T10:41:35.986Z,21.33
2023-01-05T10:44:03.361Z,16.00
2023-01-05T10:46:37.862Z,15.33
2023-01-05T10:49:07.499Z,13.00
2023-01-05T10:51:35.824Z,11.80
2023-01-05T10:54:02.269Z,12.50
2023-01-05T10:56:28.725Z,9.33
2023-01-05T10:58:55.180Z,10.00
2023-01-05T11:01:21.721Z,9.33
2023-01-05T11:06:37.359Z,9.00
2023-01-05T11:09:03.780Z,10.00
2023-01-05T11:11:30.190Z,8.00
2023-01-05T11:13:56.662Z,9.00
2023-01-05T11:16:23.135Z,8.33
2023-01-05T11:18:49.535Z,9.00
2023-01-05T11:21:15.942Z,6.00
2023-01-05T11:23:43.201Z,6.25
2023-01-05T11:26:09.592Z,9.00
2023-01-05T11:28:35.985Z,6.00
2023-01-05T11:31:02.417Z,5.67
2023-01-05T11:33:28.816Z,6.00
2023-01-05T11:35:55.245Z,7.67
2023-01-05T11:38:21.667Z,5.00
2023-01-05T11:40:49.021Z,9.50
2023-01-05T11:43:15.429Z,5.67
2023-01-05T11:45:41.797Z,7.00
2023-01-05T11:48:08.159Z,6.00
2023-01-05T11:50:34.513Z,5.00
2023-01-05T11:53:00.953Z,7.33
2023-01-05T11:55:27.342Z,5.33
2023-01-05T11:57:59.794Z,6.00
2023-01-05T12:00:26.813Z,7.33
2023-01-05T12:02:53.278Z,8.00
2023-01-05T12:05:20.547Z,5.75
2023-01-05T12:07:46.905Z,6.00
2023-01-05T12:10:13.339Z,4.33
2023-01-05T12:12:39.782Z,5.00
2023-01-05T12:15:06.202Z,6.00
2023-01-05T12:17:32.565Z,5.67
2023-01-05T12:19:58.984Z,3.33
2023-01-05T12:22:25.357Z,5.00
2023-01-05T12:24:51.761Z,5.33
2023-01-05T12:27:19.040Z,3.50
2023-01-05T12:34:00.291Z,4.67
2023-01-05T12:35:19.000Z,5.75
2023-01-05T12:37:45.542Z,5.67
2023-01-05T12:40:12.806Z,4.75
2023-01-05T12:42:39.190Z,3.33
2023-01-05T12:45:05.579Z,4.00
2023-01-05T12:47:31.968Z,4.67
2023-01-05T12:49:58.347Z,3.67
2023-01-05T12:52:24.742Z,4.33
2023-01-05T12:54:51.123Z,4.33
2023-01-05T12:57:18.379Z,4.00
2023-01-05T12:59:44.799Z,4.33
2023-01-05T13:02:11.282Z,4.00
2023-01-05T13:04:42.899Z,4.00
2023-01-05T13:07:11.420Z,3.67
2023-01-05T13:09:37.806Z,3.00
2023-01-05T13:12:04.190Z,2.33
2023-01-05T13:14:30.576Z,3.67
2023-01-05T13:16:58.681Z,4.00
2023-01-05T13:19:25.164Z,4.00
2023-01-05T13:21:51.550Z,3.33
2023-01-05T13:24:17.913Z,2.67
2023-01-05T13:26:44.260Z,3.00
2023-01-05T13:29:10.635Z,4.00
2023-01-05T13:31:37.033Z,3.00
2023-01-05T13:34:03.434Z,2.33
2023-01-05T13:36:29.765Z,3.00
2023-01-05T13:38:56.151Z,2.33
2023-01-05T13:41:22.517Z,3.00
2023-01-05T13:43:48.872Z,1.00
2023-01-05T13:46:15.320Z,2.33
2023-01-05T13:48:45.104Z,3.00
2023-01-05T13:51:17.709Z,2.00
2023-01-05T13:53:44.074Z,2.00
2023-01-05T13:56:10.463Z,3.00
2023-01-05T14:01:04.231Z,3.33
2023-01-05T14:03:30.639Z,3.00
2023-01-05T14:05:57.032Z,3.00
2023-01-05T14:08:23.400Z,3.00
2023-01-05T14:10:49.791Z,4.33
2023-01-05T14:13:16.168Z,1.67
2023-01-05T14:15:42.522Z,2.33
2023-01-05T14:18:08.918Z,3.67
2023-01-05T14:20:35.467Z,2.33
2023-01-05T14:23:01.845Z,2.00
2023-01-05T14:25:28.228Z,2.00
2023-01-05T14:27:54.584Z,2.33
2023-01-05T14:30:20.948Z,3.00
2023-01-05T14:32:47.296Z,4.00
2023-01-05T14:35:13.668Z,2.00
2023-01-05T14:37:40.051Z,4.00
2023-01-05T14:42:35.509Z,3.00
2023-01-05T14:45:01.833Z,3.00
2023-01-05T14:47:28.189Z,2.00
2023-01-05T14:49:54.551Z,1.67
2023-01-05T14:52:21.077Z,1.00
2023-01-05T14:54:50.145Z,2.00
2023-01-05T14:57:20.193Z,2.00
2023-01-05T14:59:46.568Z,2.00
2023-01-05T15:02:12.961Z,2.00
2023-01-05T15:04:42.161Z,1.67
2023-01-05T15:07:08.518Z,1.00
2023-01-05T15:09:37.726Z,1.00
2023-01-05T15:12:04.116Z,6.50
2023-01-05T15:14:30.451Z,2.67
2023-01-05T15:16:56.845Z,2.00
2023-01-05T15:19:23.214Z,2.00
2023-01-05T15:21:49.588Z,2.67
2023-01-05T15:24:15.969Z,2.00
2023-01-05T15:26:42.366Z,3.00
2023-01-05T15:29:08.780Z,2.67
2023-01-05T15:31:35.127Z,2.00
2023-01-05T15:34:01.549Z,3.00
2023-01-05T15:36:27.946Z,3.67
2023-01-05T15:38:54.308Z,2.00
2023-01-05T15:41:20.690Z,1.67
2023-01-05T15:43:47.071Z,2.00
2023-01-05T15:46:13.531Z,3.00
2023-01-05T15:48:39.959Z,2.00
2023-01-05T15:51:06.385Z,2.67
2023-01-05T15:53:32.769Z,1.67
2023-01-05T15:55:59.135Z,1.33
2023-01-05T15:58:25.490Z,2.00
2023-01-05T16:00:51.862Z,2.00
2023-01-05T16:03:18.409Z,2.00
2023-01-05T16:05:48.130Z,2.67
2023-01-05T16:08:14.513Z,2.00
2023-01-05T16:10:40.917Z,2.00
2023-01-05T16:13:07.258Z,1.67
2023-01-05T16:15:33.665Z,2.67
2023-01-05T16:18:00.042Z,2.00
2023-01-05T16:20:26.465Z,2.00
2023-01-05T16:22:57.746Z,1.33
2023-01-05T16:25:27.214Z,1.00
2023-01-05T16:27:53.555Z,1.00
2023-01-05T16:30:22.863Z,1.67
2023-01-05T16:32:49.207Z,2.00
2023-01-05T16:35:15.545Z,1.33
2023-01-05T16:37:41.926Z,1.33
2023-01-05T16:40:11.108Z,1.00
2023-01-05T16:42:40.564Z,1.00
2023-01-05T16:45:07.038Z,2.00
2023-01-05T16:47:36.195Z,1.50
2023-01-05T16:50:02.614Z,1.67
2023-01-05T16:52:45.859Z,1.00
2023-01-05T16:55:16.995Z,1.00
2023-01-05T16:57:46.282Z,2.00
2023-01-05T17:00:15.432Z,0.83
2023-01-05T17:02:41.790Z,1.00
2023-01-05T17:05:08.159Z,1.00
2023-01-05T17:07:37.378Z,1.00
2023-01-05T17:10:03.720Z,1.33
2023-01-05T17:12:32.873Z,1.00
2023-01-05T17:14:59.246Z,1.00
2023-01-05T17:17:25.790Z,2.00
2023-01-05T17:19:52.160Z,2.67
2023-01-05T17:22:19.596Z,13.00
2023-01-05T17:24:45.999Z,3.00
2023-01-05T17:29:39.672Z,1.33
2023-01-05T17:32:06.023Z,0.33
2023-01-05T17:34:36.325Z,0.83
2023-01-05T17:37:06.997Z,1.00
2023-01-05T17:39:33.478Z,4.00
2023-01-05T17:41:59.864Z,2.33
2023-01-05T17:44:26.351Z,2.33
2023-01-05T17:46:53.029Z,1.33
2023-01-05T17:49:19.384Z,0.33
2023-01-05T17:51:45.761Z,6.67
2023-01-05T17:54:12.274Z,0.67
2023-01-05T17:56:38.710Z,9.33
2023-01-05T17:59:05.174Z,9.00
2023-01-05T18:01:31.753Z,13.00
2023-01-05T18:03:58.230Z,10.00
2023-01-05T18:06:24.817Z,7.67
2023-01-05T18:08:51.240Z,6.00
2023-01-05T18:11:17.928Z,3.00
2023-01-05T18:13:45.555Z,51.00
2023-01-05T18:16:12.097Z,40.00
2023-01-05T18:18:39.555Z,35.33
2023-01-05T18:21:06.085Z,34.00
2023-01-05T18:23:32.780Z,33.50
2023-01-05T18:26:00.204Z,26.33
2023-01-05T18:28:27.645Z,21.33
2023-01-05T18:33:27.339Z,19.00
2023-01-05T18:38:21.468Z,17.50
2023-01-05T18:40:48.023Z,15.00
2023-01-05T18:43:16.366Z,12.40
2023-01-05T18:45:44.897Z,12.20
2023-01-05T18:48:13.240Z,13.00
2023-01-05T18:50:39.737Z,11.00
2023-01-05T18:53:06.517Z,11.50
2023-01-05T18:55:32.975Z,10.00
2023-01-05T18:57:59.393Z,10.00
2023-01-05T19:00:25.796Z,7.67
2023-01-05T19:02:53.088Z,9.00
2023-01-05T19:05:19.641Z,7.00
2023-01-05T19:07:46.035Z,8.33
2023-01-05T19:10:12.441Z,9.00
2023-01-05T19:12:38.840Z,6.00
2023-01-05T19:15:05.239Z,6.00
2023-01-05T19:17:31.638Z,6.00
2023-01-05T19:19:58.023Z,7.33
2023-01-05T19:22:24.467Z,8.67
2023-01-05T19:24:50.842Z,6.33
2023-01-05T19:27:18.129Z,7.50
2023-01-05T19:29:44.520Z,6.67
2023-01-05T19:32:10.916Z,7.33
2023-01-05T19:34:37.330Z,5.67
2023-01-05T19:37:03.746Z,6.00
2023-01-05T19:39:31.028Z,6.00
2023-01-05T19:41:57.428Z,7.33
2023-01-05T19:44:23.857Z,5.67
2023-01-05T19:46:50.256Z,4.33
2023-01-05T19:49:16.695Z,5.33
2023-01-05T19:51:43.065Z,4.00
2023-01-05T19:54:09.554Z,8.00
2023-01-05T19:56:36.072Z,24.50
2023-01-05T19:59:02.528Z,7.33
2023-01-05T20:01:28.997Z,6.67
2023-01-05T20:03:55.459Z,6.33
2023-01-05T20:06:21.854Z,6.33
2023-01-05T20:08:48.518Z,5.67
2023-01-05T20:11:14.931Z,5.33
2023-01-05T20:13:41.326Z,5.33
2023-01-05T20:16:07.789Z,6.00
2023-01-05T20:18:34.229Z,7.50
2023-01-05T20:21:00.780Z,6.00
2023-01-05T20:23:27.186Z,4.67
2023-01-05T20:25:53.560Z,5.33
2023-01-05T20:28:19.961Z,6.00
2023-01-05T20:30:46.371Z,5.33
2023-01-05T20:33:12.859Z,10.00
2023-01-05T20:35:39.240Z,6.00
2023-01-05T20:38:05.639Z,6.00
2023-01-05T20:40:32.087Z,3.67
2023-01-05T20:42:58.518Z,4.00
2023-01-05T20:45:24.883Z,3.33
2023-01-05T20:47:51.407Z,3.33
2023-01-05T20:50:18.664Z,5.00
2023-01-05T20:52:45.060Z,3.00
2023-01-05T20:55:11.433Z,3.67
2023-01-05T20:57:37.986Z,8.00
2023-01-05T21:00:04.402Z,4.33
2023-01-05T21:02:40.082Z,4.83
2023-01-05T21:05:06.560Z,4.67
2023-01-05T21:07:32.955Z,4.00
2023-01-05T21:09:59.380Z,3.67
2023-01-05T21:12:25.762Z,5.00
2023-01-05T21:14:52.330Z,4.67
2023-01-05T21:17:18.736Z,4.00
2023-01-05T21:19:45.175Z,5.00
2023-01-05T21:22:11.572Z,5.67
2023-01-05T21:24:37.966Z,4.67
2023-01-05T21:27:04.556Z,3.33
2023-01-05T21:29:31.153Z,5.00
2023-01-05T21:31:57.512Z,6.00
2023-01-05T21:34:24.126Z,6.00
2023-01-05T21:36:50.503Z,5.00
2023-01-05T21:39:16.895Z,5.00
2023-01-05T21:41:43.270Z,4.67
2023-01-05T21:44:10.057Z,4.33
2023-01-05T21:46:36.471Z,5.00
2023-01-05T21:49:02.853Z,3.00
2023-01-05T21:51:29.426Z,3.00
2023-01-05T21:53:55.813Z,4.00
2023-01-05T21:56:22.203Z,3.67
2023-01-05T21:58:48.595Z,4.33
2023-01-05T22:01:15.056Z,3.00
2023-01-05T22:03:41.508Z,5.00
2023-01-05T22:06:07.934Z,5.00
2023-01-05T22:08:34.444Z,3.33
2023-01-05T22:11:00.839Z,4.00
2023-01-05T22:13:27.247Z,3.00
2023-01-05T22:15:53.659Z,3.00
2023-01-05T22:18:20.106Z,0.00
2023-01-05T22:20:46.528Z,2.00
2023-01-05T22:23:12.920Z,3.00
2023-01-05T22:25:42.080Z,2.67
2023-01-05T22:28:08.462Z,2.33
2023-01-05T22:30:34.835Z,2.33
2023-01-05T22:33:01.329Z,3.00
2023-01-05T22:35:27.735Z,2.00
2023-01-05T22:37:54.112Z,1.00
2023-01-05T22:40:20.563Z,2.00
2023-01-05T22:42:46.947Z,1.67
2023-01-05T22:45:13.358Z,2.00
2023-01-05T22:47:39.734Z,1.33
2023-01-05T22:50:06.304Z,2.00
2023-01-05T22:52:32.687Z,1.33
2023-01-05T22:54:59.067Z,6.00
2023-01-05T22:57:25.452Z,5.00
2023-01-05T22:59:51.827Z,5.33
2023-01-05T23:02:18.295Z,6.33
2023-01-05T23:04:44.739Z,8.67
2023-01-05T23:07:11.107Z,3.67
2023-01-05T23:09:37.485Z,4.33
2023-01-05T23:12:03.864Z,2.67
2023-01-05T23:14:30.289Z,3.00
2023-01-05T23:16:56.702Z,4.00
2023-01-05T23:19:23.133Z,2.33
2023-01-05T23:21:49.490Z,2.33
2023-01-05T23:24:15.882Z,2.00
2023-01-05T23:26:42.335Z,1.33
2023-01-05T23:29:08.722Z,1.00
2023-01-05T23:31:35.093Z,1.33
2023-01-05T23:34:01.597Z,1.33
2023-01-05T23:36:27.999Z,2.33
2023-01-05T23:38:54.345Z,2.00
2023-01-05T23:41:20.740Z,2.00
2023-01-05T23:43:47.090Z,2.00
2023-01-05T23:46:13.491Z,2.33
2023-01-05T23:48:39.962Z,1.33
2023-01-05T23:51:06.357Z,1.33
2023-01-05T23:53:32.700Z,1.67
2023-01-05T23:55:59.127Z,1.00
2023-01-05T23:58:25.483Z,1.33
